BJCROCKY MOUNTAIN METROPOLITAN
METARs for nearby airports:
N 0 5673' KBJC 192147Z 30011G14KT 30SM BKN035 BKN075 10/03 A2992
NE 6 5119' KEIK 192236Z 31007G14KT 10SM SCT110 10/02 A2995
NW 9 5288' KBDU 192230Z 00000KT 10SM OVC040 09/02 A2990
N 15 5055' KLMO 192235Z 30003KT 7SM OVC044 11/02 A2992
E 20 5433' KDEN 192153Z 05014KT 10SM FEW048 BKN060 OVC075 13/04 A2987
SE 20 5663' KBKF 192222Z 29011KT 10SM SCT040 BKN060 BKN120 BKN200 13/04 A2986
SE 23 5885' KAPA 192153Z 32007KT 10SM FEW047 BKN070 OVC080 12/05 A2987
E 27 5512' KFTG 192207Z 15020G29KT 10SM OVC060 15/03 A2987
N 32 5015' KFNL 192156Z VRB04KT 10SM BKN038 OVC044 09/02 A2992
W 38 8207' KGNB 192230Z 14014G22KT 10SM OVC055 09/M01 A2986
NE 38 4696' KGXY 192156Z 12009G16KT 10SM OVC048 14/01 A2991
S 57 6576' KAFF 192158Z 18014KT 10SM FEW060 SCT100 BKN200 13/00 A2989
SE 63 6873' KFLY 192235Z 17013G19KT 10SM BKN050 BKN060 BKN070 12/M01 A2994
NE 65 4595' KFMM 192235Z 07015G19KT 10SM 14/M01 A2990
S 69 6187' KCOS 192154Z 16007KT 10SM FEW060 OVC080 14/00 A2991
SW 69 9933' KLXV 192153Z 18015KT 10SM BKN049 OVC060 04/M03 A2991
S 75 5874' KFCS 192158Z 23006KT 10SM SCT075 15/00 A2987
N 76 6159' KCYS 192209Z 15011KT 10SM BKN030 OVC035 08/01 A2992
SE 77 5374' KLIC 192155Z 16018G25KT 10SM BKN120 15/01 A2990
SW 80 7950' KAEJ 192235Z 18015G30KT 10SM SCT055 BKN065 OVC090 09/M03 A2991
W 84 6547' KEGE 192156Z 24014G23KT 10SM OVC075 14/M01 A2980
N 88 7283' KLAR 192153Z 15023KT 10SM BKN049 OVC065 06/M01 A2986
NW 88 6882' KSBS 192235Z 33008KT 10SM SCT049 OVC060 11/00 A2978
E 88 4715' KAKO 192153Z 11010G16KT 10SM CLR 14/02 A2992
SW 90 7837' KASE 192153Z 17016G26KT 10SM SCT049 BKN055 OVC100 11/M01 A2984
SW 93 7523' KANK 192235Z 18003KT 10SM SCT060 OVC090 10/00 A2997
NE 94 4037' KSTK 192240Z 06009KT 10SM CLR 13/01 A2991
TAFs for nearby airports:
N 0 5673' KBJC TAF KBJC 191730Z 1918/2018 03010KT P6SM BKN022 BKN050
  FM191900 02010KT P6SM FEW020 BKN080
  TEMPO 1921/2001 -SHRA BKN050
  FM200100 33010KT P6SM VCSH SCT050 BKN080
  TEMPO 2001/2005 -SHRA BKN050
  FM200500 33009KT P6SM SCT040 BKN070
  FM200900 34008KT P6SM SCT008 OVC012
  FM201300 36008KT P6SM VCSH OVC006
E 20 5433' KDEN TAF
  AMD KDEN 192233Z 1923/2024 03014KT P6SM -SHRA BKN060 OVC080
  FM200100 33011KT P6SM VCSH SCT050 BKN080
  TEMPO 2001/2005 -SHRA OVC050
  FM200600 34007KT P6SM SCT020 BKN040
  FM201000 35007KT P6SM BKN010 OVC028
  FM201300 01009KT P6SM VCSH OVC008
  FM201800 04011KT P6SM -SHRA BKN011 OVC020
  TEMPO 2019/2023 4SM TSRA OVC010CB
SE 20 5663' KBKF TAF KBKF 191705Z 1917/2023 16012KT 9999 BKN030 QNH2992INS
  BECMG 1920/1921 15012G18KT 9999 BKN050 QNH2982INS
  BECMG 1923/1924 VRB06KT 9000 -SHRA BKN050 QNH2982INS
  BECMG 2002/2003 35012KT 8000 -SHRA BKN035 QNH2978INS
  BECMG 2009/2010 VRB06KT 9999 NSW BKN050 QNH2972INS TX15/1922Z TN02/2014Z
SE 23 5885' KAPA TAF
  AMD KAPA 192206Z 1922/2018 30010KT P6SM SCT050 BKN080
  TEMPO 1922/1924 -SHRA BKN050
  FM200000 21008KT P6SM VCSH SCT050 BKN080
  TEMPO 2000/2003 -SHRA OVC050
  FM200600 34007KT P6SM SCT020 BKN040
  FM201000 35007KT P6SM BKN010 OVC028
  FM201300 01009KT P6SM VCSH OVC008
S 57 6576' KAFF TAF TAF
  AMD KAFF 1718/1817 18025G35KT 9999 SCT090 530009 QNH2960INS
  BECMG 1720/1721 25025G35KT 9999 VCSH BKN050 530009 QNH2962INS
  BECMG 1802/1803 32009KT 9999 NSW FEW070 QNH2973INS
  BECMG 1814/1815 29012KT 9999 BKN060 QNH2977INS TX20/1721Z TN05/1810Z LAST NO
  AMDS AFT 1718 NEXT 2011
S 69 6187' KCOS TAF
  AMD KCOS 192237Z 1923/2018 16007G17KT P6SM FEW060 OVC080
  FM200100 11012KT P6SM BKN060 BKN150
  FM200700 07009KT P6SM BKN120
  FM201500 11013KT P6SM VCSH SCT030 BKN070
S 75 5874' KFCS TAF TAF KFCS 192102Z 1921/2103 17012KT 9999 SCT060 QNH2981INS
  TEMPO 1921/2001 18015G25KT
  BECMG 2002/2003 VRB06KT 9999 FEW090 QNH2975INS
  BECMG 2017/2018 11012KT 9999 BKN030 QNH2970INS
  BECMG 2020/2021 09012KT 8000 -SHRA BKN030 QNH2963INS TX17/1922Z TN04/2014Z
N 76 6159' KCYS TAF KCYS 191742Z 1918/2018 14007KT P6SM BKN018
  FM192100 14010KT P6SM VCSH BKN025
  FM200000 13013KT P6SM SHRA OVC020
  FM200600 11013KT 6SM -SHRA BR OVC009
  FM201200 12011KT 2SM -SHRASN BR OVC005
  FM201600 12012KT 2SM -RASN BR OVC003
W 84 6547' KEGE KEGE 192211Z 1922/2018 21015G25KT P6SM VCSH BKN060 OVC080
  FM200300 17005KT P6SM -SHRA BKN050 BKN080
  FM201200 VRB03KT 6SM -SHRASN BR SCT015 OVC030
N 88 7283' KLAR TAF KLAR 191742Z 1918/2018 13008KT P6SM BKN028 OVC080
  FM191900 13011KT P6SM VCSH FEW025 OVC035
  FM200100 13017G26KT P6SM -SHRA OVC020
  FM201300 14017KT 6SM -SHRASN BR OVC012
  FM201600 14016G23KT 4SM BR VCSH OVC007
SW 90 7837' KASE TAF
  AMD KASE 192212Z 1922/2018 18012G22KT P6SM VCSH BKN050 BKN090
  FM200300 15005KT 6SM -SHRASN BR SCT025 BKN050
  FM201600 16009KT 6SM -SHRA BR SCT015 OVC030
Area forecast:
000
FAUS45 KKCI 101945
FA5W  
SLCC FA 101945
SYNOPSIS AND VFR CLDS/WX
SYNOPSIS VALID UNTIL 111400
CLDS/WX VALID UNTIL 110800...OTLK VALID 110800-111400
ID MT WY NV UT CO AZ NM
.
SEE AIRMET SIERRA FOR IFR CONDS AND MTN OBSCN.
TS IMPLY SEV OR GTR TURB SEV ICE LLWS AND IFR CONDS.
NON MSL HGTS DENOTED BY AGL OR CIG.
.
SYNOPSIS...UPR LVL TROF WAS LOCATED NR 130W. MOIST SWLY FLOW
EXTDS FROM PAC NW EWD INTO NRN ROCKIES. HIGH PRES RIDGE WAS OVR
MUCH OF THE REST OF THE AREA. BY 14Z...UPR LVL TROF WILL EXTD
FROM WA-OR SWD INTO CA.  ..STREIB..
.
ID
NRN...SCT140 BKN CI. BECMG 0205 OVC140 LYRD FL240. BECMG 0508
   BKN090 OVC120 LYRD FL240. OTLK...VFR.
CNTRL MTNS...SCT150 BKN CI. OTLK...VFR.
SWRN...SCT CI. OTLK...VFR.
SERN...BKN CI. BECMG 0205 SKC OCNL SCT CI. OTLK...VFR.
.
MT
CONTDVD WWD...BKN CI. OTLK...VFR.
SWRN MTNS...BKN CI GRDLY BECMG BKN-SCT CI. OTLK...VFR.
ERN SLOPES OF CONTDVD...SCT140 BKN-OVC CI. OTLK...VFR.
CNTRL...BKN CI. OTLK...VFR.
ERN...FEW-SCT CI. OTLK...VFR.
.
WY
MTNS AND WEST...SCT-BKN CI. OTLK...VFR.
PLAINS...
   NRN AND CNTRL PTNS...SKC OCNL SCT CI. OTLK...VFR.
   SRN PTNS...SCT CI. OTLK...VFR.
.
NV
NWRN...SKC. OCNL SCT CI. OTLK...VFR.
NERN...SKC. OCNL SCT CI. OTLK...VFR.
SRN...SKC. OCNL SCT CI. OTLK...VFR.
.
UT
NWRN...SKC OCNL SCT CI. OTLK...VFR.
NERN...SKC OCNL FEW CI. OTLK...VFR.
SRN...SKC. OTLK...VFR.
.
CO
MTNS AND WEST...
   NRN PTNS...SKC OCNL FEW CI. OTLK...VFR.
   SRN PTNS...SKC. OTLK...VFR.
PLAINS...
   NRN PTNS...SKC OCNL FEW CI. OTLK...VFR.
   SRN PTNS...SKC. OTLK...VFR.
.
AZ
NRN HLF...SKC OCNL FEW CI. OTLK...VFR.
SWRN...FEW CI. OTLK...VFR.
SERN...SKC. OTLK...VFR.
.
NM
MTNS AND WEST...SKC OCNL FEW CI. OTLK...VFR.
PLAINS...
   NRN AND CNTRL...SKC. OTLK...VFR.
   SRN... SKC OCNL FEW120-140 TIL 00Z. OTLK...VFR.
.
THE AREA FORECAST WILL TERMINATE AT 2359Z ON 10 OCTOBER 2017. IN
PLACE OF THE AREA FORECAST...PLEASE SEE THE GRAPHICAL FORECAST AT
WWW.AVIATIONWEATHER.GOV/GFA. GRAPHICAL AND TEXT AIRMETS WILL
CONTINUE AS REGULARLY SCHEDULED.
....

Shortcut to this page: http://wxbay.com.

Data may contain errors.